オークランド の空港の天気 - METARとTAF

オークランド国際空港 ( NZAA / AKL ) - ニュージーランド オークランド|オークランド
飛行場実況気象(Metar)
観測時間01/22 08:30 NZDT (01/21 19:30 UTC)
風向・風速静穏 0m/s
視程10km以上
天気現象
なし
気温19℃
湿度78%
気圧1020hPa
METARNZAA 211930Z AUTO 00000KT 9999 NCD 19/15 Q1020 NOSIG
過去の天気等 Google飛行場航空写真 Wunderground天気予報

過去48時間のMETAR

飛行場予報(TAF)
発表時間: 1/22 06:01 NZDT (1/21 17:01 UTC)
予報対象時間: 22日7時 NZDT ~ 23日7時 NZDT
風向・風速不定 1m/s
視程10km以上
少しの雲 雲底高度 1070m
22日9時 NZDT ~ 22日11時 NZDT に徐々に
風向・風速北北東 5m/s
22日19時 NZDT ~ 22日21時 NZDT に徐々に
風向・風速不定 1m/s
TAF NZAA 211701Z 2118/2218 VRB02KT 9999 FEW035
BECMG 2120/2122 03010KT
BECMG 2206/2208 VRB02KT